Galani — 9HA3640 — position and weather

sailwx.info

Track history (hours):
 
Tides and Currents Weather Stations Pressure Air Temp Water Temp Dewpoint Dewpoint Depression Visibility Wind Speed Wind Dir Waves Ship Positions

Galani

Last reported at 2017-Oct-29 12:02 UTC. Time now 2017-Nov-19 06:32 UTC.
Position N 28°19' W 016°02'.
Warning: this ship's position is 20 days out of date.

Length 177 m; draft 10.7 m.

Type: Ship (hazmat cat A). MMSI: 229821000.

Date/timePositionNaut miles runAvg speedWind from/ knotsBaromVisibWave heightAir tempDewpointWater temp
2017-Oct-29 12:02N 28°19' W 016°02'011.5
2017-Oct-29 11:59N 28°20' W 016°02'611.5
2017-Oct-29 11:30N 28°24' W 015°58'611.2
2017-Oct-29 11:00N 28°28' W 015°54'611.2
2017-Oct-29 10:30N 28°32' W 015°49'611.2
2017-Oct-29 10:00N 28°37' W 015°45'611.2
2017-Oct-29 09:30N 28°42' W 015°42'611.1
2017-Oct-29 09:00N 28°47' W 015°39'611.2
2017-Oct-29 08:29N 28°52' W 015°36'511.4
2017-Oct-29 08:00N 28°57' W 015°33'611.3
2017-Oct-29 07:30N 29°02' W 015°30'611.3
2017-Oct-29 07:00N 29°07' W 015°27'611.2
2017-Oct-29 06:30N 29°12' W 015°24'911.1
2017-Oct-29 05:39N 29°20' W 015°19'211.0
2017-Oct-29 05:30N 29°21' W 015°18'611.2
2017-Oct-29 05:00N 29°26' W 015°15'611.3
2017-Oct-29 04:30N 29°31' W 015°12'611.2
2017-Oct-29 04:00N 29°36' W 015°10'12911.5
2017-Oct-28 16:47N 31°30' W 014°00'3511.9
2017-Oct-28 13:52N 32°01' W 013°41'611.4
2017-Oct-28 13:23N 32°06' W 013°38'511.5
2017-Oct-28 12:59N 32°10' W 013°36'1711.4
2017-Oct-28 11:27N 32°26' W 013°26'511.3
2017-Oct-28 11:00N 32°30' W 013°23'5111.1
2017-Oct-28 06:25N 33°15' W 012°55'23311.4
2017-Oct-27 09:54N 36°42' W 010°44'410.5
2017-Oct-27 09:30N 36°46' W 010°42'510.6
2017-Oct-27 09:00N 36°50' W 010°39'611.1
2017-Oct-27 08:28N 36°55' W 010°35'511.2
2017-Oct-27 08:00N 36°60' W 010°32'510.9
2017-Oct-27 07:31N 37°05' W 010°29'1810.6
2017-Oct-27 05:48N 37°21' W 010°18'411.1
2017-Oct-27 05:29N 37°24' W 010°16'1410.6
2017-Oct-27 04:08N 37°37' W 010°08'110.3
2017-Oct-27 04:01N 37°38' W 010°07'510.3
2017-Oct-27 03:31N 37°42' W 010°04'510.4
2017-Oct-27 03:00N 37°47' W 010°01'510.4
2017-Oct-27 02:31N 37°51' W 009°58'510.7
2017-Oct-27 02:00N 37°56' W 009°55'510.7
2017-Oct-27 01:31N 38°01' W 009°52'510.9
2017-Oct-27 01:01N 38°06' W 009°49'510.9
2017-Oct-27 00:31N 38°10' W 009°45'511.0
2017-Oct-27 00:01N 38°15' W 009°42'510.6
2017-Oct-26 23:31N 38°20' W 009°39'510.6
2017-Oct-26 23:00N 38°25' W 009°36'510.8
2017-Oct-26 22:31N 38°29' W 009°32'611.0
2017-Oct-26 22:01N 38°34' W 009°29'510.3
2017-Oct-26 21:30N 38°37' W 009°23'5 9.4
2017-Oct-26 21:00N 38°40' W 009°19'714.0
2017-Oct-26 20:30N 38°42' W 009°10'0 0.6
2017-Oct-26 19:45N 38°42' W 009°10'0 0.0
2017-Oct-26 19:15N 38°42' W 009°10'0 0.0
2017-Oct-26 18:36N 38°42' W 009°10'0 0.0
2017-Oct-26 18:12N 38°42' W 009°10'0 0.0
2017-Oct-26 17:57N 38°42' W 009°10'0 0.0
2017-Oct-26 16:27N 38°42' W 009°10'0 0.0
2017-Oct-26 15:51N 38°42' W 009°10'0 0.0
2017-Oct-26 15:30N 38°42' W 009°10'0 0.0
2017-Oct-26 14:57N 38°42' W 009°10'0 0.0
2017-Oct-26 14:24N 38°42' W 009°10'0 0.0
2017-Oct-26 13:57N 38°42' W 009°10'0 0.0
2017-Oct-26 13:27N 38°42' W 009°10'0 0.0
2017-Oct-26 12:27N 38°42' W 009°10'0 0.0
2017-Oct-26 11:51N 38°42' W 009°10'0 0.0
2017-Oct-26 11:24N 38°42' W 009°10'0 0.0
2017-Oct-26 10:57N 38°42' W 009°10'0 0.5
2017-Oct-26 10:30N 38°42' W 009°10'5 9.0
2017-Oct-26 10:00N 38°41' W 009°16'612.7
2017-Oct-26 09:30N 38°37' W 009°22'3 6.9
2017-Oct-26 09:00N 38°40' W 009°24'2 3.9
2017-Oct-26 08:30N 38°39' W 009°26'4 7.1
2017-Oct-26 08:01N 38°37' W 009°30'4 7.9
2017-Oct-26 07:30N 38°36' W 009°35'3 6.3
2017-Oct-26 07:00N 38°35' W 009°38'0 0.6
2017-Oct-26 06:30N 38°35' W 009°38'0 0.5
2017-Oct-26 06:00N 38°35' W 009°38'0 0.6
2017-Oct-26 05:30N 38°35' W 009°37'0 0.6
2017-Oct-26 05:00N 38°35' W 009°37'0 0.6
2017-Oct-26 04:30N 38°35' W 009°37'0 0.6
2017-Oct-26 04:00N 38°34' W 009°37'1 3.0
2017-Oct-26 03:30N 38°35' W 009°38'510.0
2017-Oct-26 03:01N 38°39' W 009°42'510.0
2017-Oct-26 02:30N 38°44' W 009°43'510.0
2017-Oct-26 02:00N 38°49' W 009°44'510.5
2017-Oct-26 01:30N 38°54' W 009°44'510.6
2017-Oct-26 01:00N 38°59' W 009°44'510.7
2017-Oct-26 00:30N 39°05' W 009°44'510.6
2017-Oct-26 00:01N 39°10' W 009°44'510.5
2017-Oct-25 23:30N 39°15' W 009°44'610.9
2017-Oct-25 22:59N 39°21' W 009°44'2310.3
2017-Oct-25 20:47N 39°43' W 009°36'9010.2
2017-Oct-25 12:00N 41°05' W 008°49'4 7.9
2017-Oct-25 11:30N 41°08' W 008°47'0 0.1
2017-Oct-25 10:05N 41°08' W 008°47'0 0.0
2017-Oct-25 09:59N 41°08' W 008°47'0 0.1
2017-Oct-25 09:29N 41°08' W 008°47'0 0.2
2017-Oct-25 08:59N 41°08' W 008°47'0 0.1
2017-Oct-25 08:14N 41°08' W 008°47'0 0.1
2017-Oct-25 07:59N 41°08' W 008°47'0 0.1
2017-Oct-25 07:29N 41°08' W 008°47'0 0.1
2017-Oct-25 06:59N 41°08' W 008°47'0 0.1
2017-Oct-25 06:29N 41°08' W 008°47'0 0.1
2017-Oct-25 05:59N 41°08' W 008°47'0 0.0
2017-Oct-25 05:29N 41°08' W 008°47'0 0.0
2017-Oct-25 04:59N 41°08' W 008°47'0 0.0
2017-Oct-25 04:29N 41°08' W 008°47'0 0.0
2017-Oct-25 03:59N 41°08' W 008°47'0 0.1
2017-Oct-25 03:29N 41°08' W 008°47'0 0.2
2017-Oct-25 02:50N 41°08' W 008°47'0 0.1
2017-Oct-25 02:23N 41°08' W 008°47'0 0.1
2017-Oct-25 01:56N 41°08' W 008°47'0 0.1
2017-Oct-25 01:14N 41°08' W 008°47'0 0.1
2017-Oct-25 00:38N 41°08' W 008°47'0 0.1
2017-Oct-25 00:29N 41°08' W 008°47'0 0.0
2017-Oct-24 23:59N 41°08' W 008°47'0 0.0
2017-Oct-24 23:26N 41°08' W 008°47'0 0.0
2017-Oct-24 22:50N 41°08' W 008°47'0 0.0
2017-Oct-24 22:29N 41°08' W 008°47'0 0.0
2017-Oct-24 21:59N 41°08' W 008°47'0 0.0
2017-Oct-24 21:29N 41°08' W 008°46'0 0.0
2017-Oct-24 20:59N 41°08' W 008°46'0 0.0
2017-Oct-24 20:29N 41°08' W 008°46'0 0.0
2017-Oct-24 19:47N 41°08' W 008°46'0 0.0
2017-Oct-24 19:29N 41°08' W 008°46'0 0.0
2017-Oct-24 18:56N 41°08' W 008°46'0 0.0
2017-Oct-24 18:02N 41°08' W 008°47'0 0.1
2017-Oct-24 17:59N 41°08' W 008°47'0 0.0
2017-Oct-24 17:29N 41°08' W 008°47'0 0.0
2017-Oct-24 16:59N 41°08' W 008°46'0 0.0
2017-Oct-24 16:14N 41°08' W 008°46'0 0.0
2017-Oct-24 15:59N 41°08' W 008°46'0 0.0
2017-Oct-24 15:29N 41°08' W 008°46'0 0.0
2017-Oct-24 14:59N 41°08' W 008°46'0 0.0
2017-Oct-24 14:29N 41°08' W 008°46'0 0.0
2017-Oct-24 13:59N 41°08' W 008°46'0 0.0
2017-Oct-24 13:29N 41°08' W 008°46'0 0.0
2017-Oct-24 12:59N 41°08' W 008°46'0 0.1
2017-Oct-24 10:56N 41°08' W 008°47'0 0.0
2017-Oct-24 10:02N 41°08' W 008°47'0 0.0
2017-Oct-24 07:47N 41°08' W 008°47'0 0.1
2017-Oct-24 07:29N 41°08' W 008°46'0 0.0
2017-Oct-24 06:59N 41°08' W 008°46'0 0.1
2017-Oct-24 06:11N 41°08' W 008°47'0 0.1
2017-Oct-24 05:59N 41°08' W 008°47'0 0.0
2017-Oct-24 04:14N 41°08' W 008°47'0 0.1
2017-Oct-24 03:59N 41°08' W 008°47'0 0.1
2017-Oct-24 03:29N 41°08' W 008°47'0 0.0
2017-Oct-24 02:53N 41°08' W 008°46'0 0.0
2017-Oct-24 02:29N 41°08' W 008°46'0 0.0
2017-Oct-24 01:59N 41°08' W 008°46'0 0.0
2017-Oct-24 01:23N 41°08' W 008°47'0 0.0
2017-Oct-24 00:53N 41°08' W 008°47'0 0.0
2017-Oct-24 00:29N 41°08' W 008°47'0 0.0
2017-Oct-23 23:59N 41°08' W 008°47'0 0.0
2017-Oct-23 23:29N 41°08' W 008°47'0 0.0
2017-Oct-23 22:59N 41°08' W 008°47'0 0.0
2017-Oct-23 22:26N 41°08' W 008°47'0 0.0
2017-Oct-23 20:23N 41°08' W 008°47'0 0.0
2017-Oct-23 19:59N 41°08' W 008°47'0 0.0
2017-Oct-23 19:29N 41°08' W 008°47'0 0.0
2017-Oct-23 18:41N 41°08' W 008°47'0 0.1
2017-Oct-23 18:29N 41°08' W 008°47'0 0.0
2017-Oct-23 17:05N 41°08' W 008°47'0 0.0
2017-Oct-23 16:23N 41°08' W 008°47'0 0.0
2017-Oct-23 15:56N 41°08' W 008°47'0 0.0
2017-Oct-23 15:29N 41°08' W 008°47'0 0.0
2017-Oct-23 14:53N 41°08' W 008°47'0 0.0
2017-Oct-23 14:26N 41°08' W 008°47'0 0.1
2017-Oct-23 13:00N 41°08' W 008°47'3 6.2
2017-Oct-23 12:31N 41°10' W 008°43'2 4.0
2017-Oct-23 12:00N 41°11' W 008°41'0 0.7
2017-Oct-23 11:27N 41°12' W 008°41'0 0.0
2017-Oct-23 11:00N 41°12' W 008°41'0 0.0
2017-Oct-23 10:30N 41°12' W 008°41'0 0.0
2017-Oct-23 10:00N 41°12' W 008°41'0 0.0
2017-Oct-23 09:27N 41°12' W 008°41'0 0.0
2017-Oct-23 09:00N 41°12' W 008°41'0 0.0
2017-Oct-23 08:30N 41°12' W 008°41'0 0.0
2017-Oct-23 08:00N 41°12' W 008°41'0 0.0
2017-Oct-23 07:30N 41°12' W 008°41'0 0.0
2017-Oct-23 07:00N 41°12' W 008°41'0 0.0
2017-Oct-23 06:30N 41°12' W 008°41'0 0.6
2017-Oct-23 06:01N 41°12' W 008°41'2 3.7
2017-Oct-23 05:30N 41°10' W 008°42'3 5.0
2017-Oct-23 05:00N 41°08' W 008°45'0 0.5
2017-Oct-23 04:30N 41°08' W 008°45'5213.1
2017-Oct-23 00:32N 40°20' W 009°13'1814.4
2017-Oct-22 23:17N 40°04' W 009°23'4414.3
2017-Oct-22 20:10N 39°23' W 009°45'314.1
2017-Oct-22 20:00N 39°20' W 009°46'713.7
2017-Oct-22 19:30N 39°14' W 009°47'714.6
2017-Oct-22 19:00N 39°07' W 009°48'612.1
2017-Oct-22 18:30N 39°00' W 009°49'612.5
2017-Oct-22 18:00N 38°54' W 009°50'612.3
2017-Oct-22 17:30N 38°48' W 009°51'611.6
2017-Oct-22 17:00N 38°43' W 009°51'611.2
2017-Oct-22 16:30N 38°37' W 009°49'510.9
2017-Oct-22 16:00N 38°32' W 009°48'510.5
2017-Oct-22 15:30N 38°27' W 009°46'510.8
2017-Oct-22 15:00N 38°21' W 009°45'510.8
2017-Oct-22 14:30N 38°16' W 009°44'610.9
2017-Oct-22 13:59N 38°10' W 009°43'24010.7
2017-Oct-21 15:29N 35°59' W 005°31'611.8
2017-Oct-21 15:00N 36°02' W 005°24'5 0.1
2017-Oct-20 04:34N 36°06' W 005°24'1 6.2
2017-Oct-20 04:20N 36°05' W 005°23'2 6.6
2017-Oct-20 04:00N 36°03' W 005°22'3 5.9
2017-Oct-20 03:30N 36°03' W 005°18'3 5.1
2017-Oct-20 03:00N 36°03' W 005°15'3 5.9
2017-Oct-20 02:27N 36°04' W 005°11'3 0.3
2017-Oct-19 15:24N 36°01' W 005°13'3 8.6
2017-Oct-19 15:00N 36°03' W 005°16'  
Track history (hours):
 
Tides and Currents Weather Stations Pressure Air Temp Water Temp Dewpoint Dewpoint Depression Visibility Wind Speed Wind Dir Waves Ship Positions

Galani

Last reported at 2017-Oct-29 12:02 UTC. Time now 2017-Nov-19 06:32 UTC.
Position N 28°19' W 016°02'.
Warning: this ship's position is 20 days out of date.

Length 177 m; draft 10.7 m.

Type: Ship (hazmat cat A). MMSI: 229821000.

Date/timePositionNaut miles runAvg speedWind from/ knotsBaromVisibWave heightAir tempDewpointWater temp
2017-Oct-29 12:02N 28°19' W 016°02'011.5
2017-Oct-29 11:59N 28°20' W 016°02'611.5
2017-Oct-29 11:30N 28°24' W 015°58'611.2
2017-Oct-29 11:00N 28°28' W 015°54'611.2
2017-Oct-29 10:30N 28°32' W 015°49'611.2
2017-Oct-29 10:00N 28°37' W 015°45'611.2
2017-Oct-29 09:30N 28°42' W 015°42'611.1
2017-Oct-29 09:00N 28°47' W 015°39'611.2
2017-Oct-29 08:29N 28°52' W 015°36'511.4
2017-Oct-29 08:00N 28°57' W 015°33'611.3
2017-Oct-29 07:30N 29°02' W 015°30'611.3
2017-Oct-29 07:00N 29°07' W 015°27'611.2
2017-Oct-29 06:30N 29°12' W 015°24'911.1
2017-Oct-29 05:39N 29°20' W 015°19'211.0
2017-Oct-29 05:30N 29°21' W 015°18'611.2
2017-Oct-29 05:00N 29°26' W 015°15'611.3
2017-Oct-29 04:30N 29°31' W 015°12'611.2
2017-Oct-29 04:00N 29°36' W 015°10'12911.5
2017-Oct-28 16:47N 31°30' W 014°00'3511.9
2017-Oct-28 13:52N 32°01' W 013°41'611.4
2017-Oct-28 13:23N 32°06' W 013°38'511.5
2017-Oct-28 12:59N 32°10' W 013°36'1711.4
2017-Oct-28 11:27N 32°26' W 013°26'511.3
2017-Oct-28 11:00N 32°30' W 013°23'5111.1
2017-Oct-28 06:25N 33°15' W 012°55'23311.4
2017-Oct-27 09:54N 36°42' W 010°44'410.5
2017-Oct-27 09:30N 36°46' W 010°42'510.6
2017-Oct-27 09:00N 36°50' W 010°39'611.1
2017-Oct-27 08:28N 36°55' W 010°35'511.2
2017-Oct-27 08:00N 36°60' W 010°32'510.9
2017-Oct-27 07:31N 37°05' W 010°29'1810.6
2017-Oct-27 05:48N 37°21' W 010°18'411.1
2017-Oct-27 05:29N 37°24' W 010°16'1410.6
2017-Oct-27 04:08N 37°37' W 010°08'110.3
2017-Oct-27 04:01N 37°38' W 010°07'510.3
2017-Oct-27 03:31N 37°42' W 010°04'510.4
2017-Oct-27 03:00N 37°47' W 010°01'510.4
2017-Oct-27 02:31N 37°51' W 009°58'510.7
2017-Oct-27 02:00N 37°56' W 009°55'510.7
2017-Oct-27 01:31N 38°01' W 009°52'510.9
2017-Oct-27 01:01N 38°06' W 009°49'510.9
2017-Oct-27 00:31N 38°10' W 009°45'511.0
2017-Oct-27 00:01N 38°15' W 009°42'510.6
2017-Oct-26 23:31N 38°20' W 009°39'510.6
2017-Oct-26 23:00N 38°25' W 009°36'510.8
2017-Oct-26 22:31N 38°29' W 009°32'611.0
2017-Oct-26 22:01N 38°34' W 009°29'510.3
2017-Oct-26 21:30N 38°37' W 009°23'5 9.4
2017-Oct-26 21:00N 38°40' W 009°19'714.0
2017-Oct-26 20:30N 38°42' W 009°10'0 0.6
2017-Oct-26 19:45N 38°42' W 009°10'0 0.0
2017-Oct-26 19:15N 38°42' W 009°10'0 0.0
2017-Oct-26 18:36N 38°42' W 009°10'0 0.0
2017-Oct-26 18:12N 38°42' W 009°10'0 0.0
2017-Oct-26 17:57N 38°42' W 009°10'0 0.0
2017-Oct-26 16:27N 38°42' W 009°10'0 0.0
2017-Oct-26 15:51N 38°42' W 009°10'0 0.0
2017-Oct-26 15:30N 38°42' W 009°10'0 0.0
2017-Oct-26 14:57N 38°42' W 009°10'0 0.0
2017-Oct-26 14:24N 38°42' W 009°10'0 0.0
2017-Oct-26 13:57N 38°42' W 009°10'0 0.0
2017-Oct-26 13:27N 38°42' W 009°10'0 0.0
2017-Oct-26 12:27N 38°42' W 009°10'0 0.0
2017-Oct-26 11:51N 38°42' W 009°10'0 0.0
2017-Oct-26 11:24N 38°42' W 009°10'0 0.0
2017-Oct-26 10:57N 38°42' W 009°10'0 0.5
2017-Oct-26 10:30N 38°42' W 009°10'5 9.0
2017-Oct-26 10:00N 38°41' W 009°16'612.7
2017-Oct-26 09:30N 38°37' W 009°22'3 6.9
2017-Oct-26 09:00N 38°40' W 009°24'2 3.9
2017-Oct-26 08:30N 38°39' W 009°26'4 7.1
2017-Oct-26 08:01N 38°37' W 009°30'4 7.9
2017-Oct-26 07:30N 38°36' W 009°35'3 6.3
2017-Oct-26 07:00N 38°35' W 009°38'0 0.6
2017-Oct-26 06:30N 38°35' W 009°38'0 0.5
2017-Oct-26 06:00N 38°35' W 009°38'0 0.6
2017-Oct-26 05:30N 38°35' W 009°37'0 0.6
2017-Oct-26 05:00N 38°35' W 009°37'0 0.6
2017-Oct-26 04:30N 38°35' W 009°37'0 0.6
2017-Oct-26 04:00N 38°34' W 009°37'1 3.0
2017-Oct-26 03:30N 38°35' W 009°38'510.0
2017-Oct-26 03:01N 38°39' W 009°42'510.0
2017-Oct-26 02:30N 38°44' W 009°43'510.0
2017-Oct-26 02:00N 38°49' W 009°44'510.5
2017-Oct-26 01:30N 38°54' W 009°44'510.6
2017-Oct-26 01:00N 38°59' W 009°44'510.7
2017-Oct-26 00:30N 39°05' W 009°44'510.6
2017-Oct-26 00:01N 39°10' W 009°44'510.5
2017-Oct-25 23:30N 39°15' W 009°44'610.9
2017-Oct-25 22:59N 39°21' W 009°44'2310.3
2017-Oct-25 20:47N 39°43' W 009°36'9010.2
2017-Oct-25 12:00N 41°05' W 008°49'4 7.9
2017-Oct-25 11:30N 41°08' W 008°47'0 0.1
2017-Oct-25 10:05N 41°08' W 008°47'0 0.0
2017-Oct-25 09:59N 41°08' W 008°47'0 0.1
2017-Oct-25 09:29N 41°08' W 008°47'0 0.2
2017-Oct-25 08:59N 41°08' W 008°47'0 0.1
2017-Oct-25 08:14N 41°08' W 008°47'0 0.1
2017-Oct-25 07:59N 41°08' W 008°47'0 0.1
2017-Oct-25 07:29N 41°08' W 008°47'0 0.1
2017-Oct-25 06:59N 41°08' W 008°47'0 0.1
2017-Oct-25 06:29N 41°08' W 008°47'0 0.1
2017-Oct-25 05:59N 41°08' W 008°47'0 0.0
2017-Oct-25 05:29N 41°08' W 008°47'0 0.0
2017-Oct-25 04:59N 41°08' W 008°47'0 0.0
2017-Oct-25 04:29N 41°08' W 008°47'0 0.0
2017-Oct-25 03:59N 41°08' W 008°47'0 0.1
2017-Oct-25 03:29N 41°08' W 008°47'0 0.2
2017-Oct-25 02:50N 41°08' W 008°47'0 0.1
2017-Oct-25 02:23N 41°08' W 008°47'0 0.1
2017-Oct-25 01:56N 41°08' W 008°47'0 0.1
2017-Oct-25 01:14N 41°08' W 008°47'0 0.1
2017-Oct-25 00:38N 41°08' W 008°47'0 0.1
2017-Oct-25 00:29N 41°08' W 008°47'0 0.0
2017-Oct-24 23:59N 41°08' W 008°47'0 0.0
2017-Oct-24 23:26N 41°08' W 008°47'0 0.0
2017-Oct-24 22:50N 41°08' W 008°47'0 0.0
2017-Oct-24 22:29N 41°08' W 008°47'0 0.0
2017-Oct-24 21:59N 41°08' W 008°47'0 0.0
2017-Oct-24 21:29N 41°08' W 008°46'0 0.0
2017-Oct-24 20:59N 41°08' W 008°46'0 0.0
2017-Oct-24 20:29N 41°08' W 008°46'0 0.0
2017-Oct-24 19:47N 41°08' W 008°46'0 0.0
2017-Oct-24 19:29N 41°08' W 008°46'0 0.0
2017-Oct-24 18:56N 41°08' W 008°46'0 0.0
2017-Oct-24 18:02N 41°08' W 008°47'0 0.1
2017-Oct-24 17:59N 41°08' W 008°47'0 0.0
2017-Oct-24 17:29N 41°08' W 008°47'0 0.0
2017-Oct-24 16:59N 41°08' W 008°46'0 0.0
2017-Oct-24 16:14N 41°08' W 008°46'0 0.0
2017-Oct-24 15:59N 41°08' W 008°46'0 0.0
2017-Oct-24 15:29N 41°08' W 008°46'0 0.0
2017-Oct-24 14:59N 41°08' W 008°46'0 0.0
2017-Oct-24 14:29N 41°08' W 008°46'0 0.0
2017-Oct-24 13:59N 41°08' W 008°46'0 0.0
2017-Oct-24 13:29N 41°08' W 008°46'0 0.0
2017-Oct-24 12:59N 41°08' W 008°46'0 0.1
2017-Oct-24 10:56N 41°08' W 008°47'0 0.0
2017-Oct-24 10:02N 41°08' W 008°47'0 0.0
2017-Oct-24 07:47N 41°08' W 008°47'0 0.1
2017-Oct-24 07:29N 41°08' W 008°46'0 0.0
2017-Oct-24 06:59N 41°08' W 008°46'0 0.1
2017-Oct-24 06:11N 41°08' W 008°47'0 0.1
2017-Oct-24 05:59N 41°08' W 008°47'0 0.0
2017-Oct-24 04:14N 41°08' W 008°47'0 0.1
2017-Oct-24 03:59N 41°08' W 008°47'0 0.1
2017-Oct-24 03:29N 41°08' W 008°47'0 0.0
2017-Oct-24 02:53N 41°08' W 008°46'0 0.0
2017-Oct-24 02:29N 41°08' W 008°46'0 0.0
2017-Oct-24 01:59N 41°08' W 008°46'0 0.0
2017-Oct-24 01:23N 41°08' W 008°47'0 0.0
2017-Oct-24 00:53N 41°08' W 008°47'0 0.0
2017-Oct-24 00:29N 41°08' W 008°47'0 0.0
2017-Oct-23 23:59N 41°08' W 008°47'0 0.0
2017-Oct-23 23:29N 41°08' W 008°47'0 0.0
2017-Oct-23 22:59N 41°08' W 008°47'0 0.0
2017-Oct-23 22:26N 41°08' W 008°47'0 0.0
2017-Oct-23 20:23N 41°08' W 008°47'0 0.0
2017-Oct-23 19:59N 41°08' W 008°47'0 0.0
2017-Oct-23 19:29N 41°08' W 008°47'0 0.0
2017-Oct-23 18:41N 41°08' W 008°47'0 0.1
2017-Oct-23 18:29N 41°08' W 008°47'0 0.0
2017-Oct-23 17:05N 41°08' W 008°47'0 0.0
2017-Oct-23 16:23N 41°08' W 008°47'0 0.0
2017-Oct-23 15:56N 41°08' W 008°47'0 0.0
2017-Oct-23 15:29N 41°08' W 008°47'0 0.0
2017-Oct-23 14:53N 41°08' W 008°47'0 0.0
2017-Oct-23 14:26N 41°08' W 008°47'0 0.1
2017-Oct-23 13:00N 41°08' W 008°47'3 6.2
2017-Oct-23 12:31N 41°10' W 008°43'2 4.0
2017-Oct-23 12:00N 41°11' W 008°41'0 0.7
2017-Oct-23 11:27N 41°12' W 008°41'0 0.0
2017-Oct-23 11:00N 41°12' W 008°41'0 0.0
2017-Oct-23 10:30N 41°12' W 008°41'0 0.0
2017-Oct-23 10:00N 41°12' W 008°41'0 0.0
2017-Oct-23 09:27N 41°12' W 008°41'0 0.0
2017-Oct-23 09:00N 41°12' W 008°41'0 0.0
2017-Oct-23 08:30N 41°12' W 008°41'0 0.0
2017-Oct-23 08:00N 41°12' W 008°41'0 0.0
2017-Oct-23 07:30N 41°12' W 008°41'0 0.0
2017-Oct-23 07:00N 41°12' W 008°41'0 0.0
2017-Oct-23 06:30N 41°12' W 008°41'0 0.6
2017-Oct-23 06:01N 41°12' W 008°41'2 3.7
2017-Oct-23 05:30N 41°10' W 008°42'3 5.0
2017-Oct-23 05:00N 41°08' W 008°45'0 0.5
2017-Oct-23 04:30N 41°08' W 008°45'5213.1
2017-Oct-23 00:32N 40°20' W 009°13'1814.4
2017-Oct-22 23:17N 40°04' W 009°23'4414.3
2017-Oct-22 20:10N 39°23' W 009°45'314.1
2017-Oct-22 20:00N 39°20' W 009°46'713.7
2017-Oct-22 19:30N 39°14' W 009°47'714.6
2017-Oct-22 19:00N 39°07' W 009°48'612.1
2017-Oct-22 18:30N 39°00' W 009°49'612.5
2017-Oct-22 18:00N 38°54' W 009°50'612.3
2017-Oct-22 17:30N 38°48' W 009°51'611.6
2017-Oct-22 17:00N 38°43' W 009°51'611.2
2017-Oct-22 16:30N 38°37' W 009°49'510.9
2017-Oct-22 16:00N 38°32' W 009°48'510.5
2017-Oct-22 15:30N 38°27' W 009°46'510.8
2017-Oct-22 15:00N 38°21' W 009°45'510.8
2017-Oct-22 14:30N 38°16' W 009°44'610.9
2017-Oct-22 13:59N 38°10' W 009°43'24010.7
2017-Oct-21 15:29N 35°59' W 005°31'611.8
2017-Oct-21 15:00N 36°02' W 005°24'5 0.1
2017-Oct-20 04:34N 36°06' W 005°24'1 6.2
2017-Oct-20 04:20N 36°05' W 005°23'2 6.6
2017-Oct-20 04:00N 36°03' W 005°22'3 5.9
2017-Oct-20 03:30N 36°03' W 005°18'3 5.1
2017-Oct-20 03:00N 36°03' W 005°15'3 5.9
2017-Oct-20 02:27N 36°04' W 005°11'3 0.3
2017-Oct-19 15:24N 36°01' W 005°13'3 8.6
2017-Oct-19 15:00N 36°03' W 005°16'  

Dump ship's entire track history